sensor_id;sensor_type;location;lat;lon;timestamp;pressure;altitude;pressure_sealevel;temperature;humidity
2681;BME280;1350;42.134;24.708;2023-05-25T00:00:11;99269.53;;;17.05;100.00
2681;BME280;1350;42.134;24.708;2023-05-25T00:02:38;99266.81;;;17.16;100.00
2681;BME280;1350;42.134;24.708;2023-05-25T00:05:07;99263.53;;;17.12;100.00
2681;BME280;1350;42.134;24.708;2023-05-25T00:07:35;99261.97;;;17.10;100.00
2681;BME280;1350;42.134;24.708;2023-05-25T00:10:02;99257.75;;;16.96;100.00
2681;BME280;1350;42.134;24.708;2023-05-25T00:12:30;99260.00;;;16.91;100.00
2681;BME280;1350;42.134;24.708;2023-05-25T00:14:57;99261.47;;;16.84;100.00
2681;BME280;1350;42.134;24.708;2023-05-25T00:17:23;99264.81;;;16.65;100.00
2681;BME280;1350;42.134;24.708;2023-05-25T00:19:56;99262.44;;;16.83;100.00
2681;BME280;1350;42.134;24.708;2023-05-25T00:22:26;99269.06;;;17.00;100.00
2681;BME280;1350;42.134;24.708;2023-05-25T00:24:53;99258.97;;;17.03;100.00
2681;BME280;1350;42.134;24.708;2023-05-25T00:27:20;99267.22;;;17.11;100.00
2681;BME280;1350;42.134;24.708;2023-05-25T00:29:48;99269.13;;;17.20;100.00
2681;BME280;1350;42.134;24.708;2023-05-25T00:32:15;99264.41;;;17.13;100.00
2681;BME280;1350;42.134;24.708;2023-05-25T00:34:42;99265.31;;;17.23;100.00
2681;BME280;1350;42.134;24.708;2023-05-25T00:37:08;99259.81;;;17.24;100.00
2681;BME280;1350;42.134;24.708;2023-05-25T00:39:35;99259.47;;;17.18;100.00
2681;BME280;1350;42.134;24.708;2023-05-25T00:42:02;99253.72;;;17.02;100.00
2681;BME280;1350;42.134;24.708;2023-05-25T00:44:29;99252.13;;;16.99;100.00
2681;BME280;1350;42.134;24.708;2023-05-25T00:46:58;99253.25;;;16.97;100.00
2681;BME280;1350;42.134;24.708;2023-05-25T00:49:25;99261.50;;;17.05;100.00
2681;BME280;1350;42.134;24.708;2023-05-25T00:51:52;99267.59;;;17.07;100.00
2681;BME280;1350;42.134;24.708;2023-05-25T00:54:19;99265.06;;;17.05;100.00
2681;BME280;1350;42.134;24.708;2023-05-25T00:56:50;99263.66;;;17.11;100.00
2681;BME280;1350;42.134;24.708;2023-05-25T00:59:23;99255.50;;;17.12;100.00
2681;BME280;1350;42.134;24.708;2023-05-25T01:01:52;99264.06;;;17.06;100.00
2681;BME280;1350;42.134;24.708;2023-05-25T01:04:22;99254.66;;;17.12;100.00
2681;BME280;1350;42.134;24.708;2023-05-25T01:06:49;99249.53;;;17.09;100.00
2681;BME280;1350;42.134;24.708;2023-05-25T01:09:18;99258.44;;;17.09;100.00
2681;BME280;1350;42.134;24.708;2023-05-25T01:11:49;99255.97;;;17.17;100.00
2681;BME280;1350;42.134;24.708;2023-05-25T01:14:18;99262.28;;;17.16;100.00
2681;BME280;1350;42.134;24.708;2023-05-25T01:16:45;99251.13;;;17.11;100.00
2681;BME280;1350;42.134;24.708;2023-05-25T01:19:12;99258.97;;;17.24;100.00
2681;BME280;1350;42.134;24.708;2023-05-25T01:21:43;99255.84;;;17.19;100.00
2681;BME280;1350;42.134;24.708;2023-05-25T01:24:15;99258.66;;;17.17;100.00
2681;BME280;1350;42.134;24.708;2023-05-25T01:26:51;99254.50;;;16.93;100.00
2681;BME280;1350;42.134;24.708;2023-05-25T01:29:21;99246.63;;;16.80;100.00
2681;BME280;1350;42.134;24.708;2023-05-25T01:31:49;99248.16;;;16.94;100.00
2681;BME280;1350;42.134;24.708;2023-05-25T01:34:18;99241.53;;;16.77;100.00
2681;BME280;1350;42.134;24.708;2023-05-25T01:36:46;99237.91;;;16.67;100.00
2681;BME280;1350;42.134;24.708;2023-05-25T01:39:14;99247.59;;;16.79;100.00
2681;BME280;1350;42.134;24.708;2023-05-25T01:41:41;99246.41;;;16.72;100.00
2681;BME280;1350;42.134;24.708;2023-05-25T01:44:08;99246.75;;;16.78;100.00
2681;BME280;1350;42.134;24.708;2023-05-25T01:46:36;99244.75;;;16.60;100.00
2681;BME280;1350;42.134;24.708;2023-05-25T01:49:11;99235.31;;;16.45;100.00
2681;BME280;1350;42.134;24.708;2023-05-25T01:51:52;99237.13;;;16.44;100.00
2681;BME280;1350;42.134;24.708;2023-05-25T01:54:25;99246.06;;;16.65;100.00
2681;BME280;1350;42.134;24.708;2023-05-25T01:56:56;99253.66;;;16.49;100.00
2681;BME280;1350;42.134;24.708;2023-05-25T01:59:27;99251.44;;;16.54;100.00
2681;BME280;1350;42.134;24.708;2023-05-25T02:01:55;99260.56;;;16.52;100.00
2681;BME280;1350;42.134;24.708;2023-05-25T02:04:23;99252.06;;;16.47;100.00
2681;BME280;1350;42.134;24.708;2023-05-25T02:06:52;99257.44;;;16.25;100.00
2681;BME280;1350;42.134;24.708;2023-05-25T02:09:19;99247.00;;;16.11;100.00
2681;BME280;1350;42.134;24.708;2023-05-25T02:11:46;99254.41;;;16.07;100.00
2681;BME280;1350;42.134;24.708;2023-05-25T02:14:13;99261.31;;;16.10;100.00
2681;BME280;1350;42.134;24.708;2023-05-25T02:16:40;99266.94;;;15.96;100.00
2681;BME280;1350;42.134;24.708;2023-05-25T02:19:11;99263.53;;;15.94;100.00
2681;BME280;1350;42.134;24.708;2023-05-25T02:21:39;99259.75;;;15.96;100.00
2681;BME280;1350;42.134;24.708;2023-05-25T02:24:07;99261.22;;;16.11;100.00
2681;BME280;1350;42.134;24.708;2023-05-25T02:26:34;99255.63;;;16.14;100.00
2681;BME280;1350;42.134;24.708;2023-05-25T02:29:02;99264.84;;;16.21;100.00
2681;BME280;1350;42.134;24.708;2023-05-25T02:31:29;99266.28;;;16.25;100.00
2681;BME280;1350;42.134;24.708;2023-05-25T02:33:55;99269.34;;;16.21;100.00
2681;BME280;1350;42.134;24.708;2023-05-25T02:36:22;99262.31;;;16.09;100.00
2681;BME280;1350;42.134;24.708;2023-05-25T02:38:49;99264.72;;;16.23;100.00
2681;BME280;1350;42.134;24.708;2023-05-25T02:41:18;99263.41;;;16.17;100.00
2681;BME280;1350;42.134;24.708;2023-05-25T02:43:45;99272.53;;;15.93;100.00
2681;BME280;1350;42.134;24.708;2023-05-25T02:46:12;99265.97;;;15.97;100.00
2681;BME280;1350;42.134;24.708;2023-05-25T02:48:40;99260.25;;;15.90;100.00
2681;BME280;1350;42.134;24.708;2023-05-25T02:51:07;99265.81;;;15.87;100.00
2681;BME280;1350;42.134;24.708;2023-05-25T02:53:34;99262.78;;;15.81;100.00
2681;BME280;1350;42.134;24.708;2023-05-25T02:56:00;99258.06;;;15.84;100.00
2681;BME280;1350;42.134;24.708;2023-05-25T02:58:29;99261.09;;;15.80;100.00
2681;BME280;1350;42.134;24.708;2023-05-25T03:00:57;99267.06;;;15.83;100.00
2681;BME280;1350;42.134;24.708;2023-05-25T03:03:24;99268.13;;;15.81;100.00
2681;BME280;1350;42.134;24.708;2023-05-25T03:05:51;99272.75;;;16.01;100.00
2681;BME280;1350;42.134;24.708;2023-05-25T03:08:18;99280.41;;;16.05;100.00
2681;BME280;1350;42.134;24.708;2023-05-25T03:10:44;99279.34;;;16.08;100.00
2681;BME280;1350;42.134;24.708;2023-05-25T03:13:11;99284.94;;;16.05;100.00
2681;BME280;1350;42.134;24.708;2023-05-25T03:15:39;99282.97;;;16.07;100.00
2681;BME280;1350;42.134;24.708;2023-05-25T03:18:06;99285.63;;;16.18;100.00
2681;BME280;1350;42.134;24.708;2023-05-25T03:20:33;99291.97;;;16.17;100.00
2681;BME280;1350;42.134;24.708;2023-05-25T03:22:59;99291.97;;;16.28;100.00
2681;BME280;1350;42.134;24.708;2023-05-25T03:25:26;99286.38;;;16.42;100.00
2681;BME280;1350;42.134;24.708;2023-05-25T03:27:53;99297.06;;;16.53;100.00
2681;BME280;1350;42.134;24.708;2023-05-25T03:30:20;99298.69;;;16.44;100.00
2681;BME280;1350;42.134;24.708;2023-05-25T03:32:49;99295.00;;;16.56;100.00
2681;BME280;1350;42.134;24.708;2023-05-25T03:35:16;99301.91;;;16.70;100.00
2681;BME280;1350;42.134;24.708;2023-05-25T03:37:43;99296.66;;;16.79;100.00
2681;BME280;1350;42.134;24.708;2023-05-25T03:40:10;99299.84;;;16.73;100.00
2681;BME280;1350;42.134;24.708;2023-05-25T03:42:37;99296.91;;;16.76;100.00
2681;BME280;1350;42.134;24.708;2023-05-25T03:45:05;99288.72;;;16.89;100.00
2681;BME280;1350;42.134;24.708;2023-05-25T03:47:33;99286.94;;;17.10;100.00
2681;BME280;1350;42.134;24.708;2023-05-25T03:50:01;99286.88;;;17.21;100.00
2681;BME280;1350;42.134;24.708;2023-05-25T03:52:28;99292.41;;;17.40;100.00
2681;BME280;1350;42.134;24.708;2023-05-25T03:54:55;99303.47;;;17.47;100.00
2681;BME280;1350;42.134;24.708;2023-05-25T03:57:21;99296.75;;;17.52;100.00
2681;BME280;1350;42.134;24.708;2023-05-25T03:59:48;99299.44;;;17.52;100.00
2681;BME280;1350;42.134;24.708;2023-05-25T04:02:15;99312.38;;;17.16;100.00
2681;BME280;1350;42.134;24.708;2023-05-25T04:04:41;99307.53;;;17.30;100.00
2681;BME280;1350;42.134;24.708;2023-05-25T04:07:11;99312.38;;;17.47;100.00
2681;BME280;1350;42.134;24.708;2023-05-25T04:09:37;99318.41;;;17.60;100.00
2681;BME280;1350;42.134;24.708;2023-05-25T04:12:05;99312.34;;;17.88;100.00
2681;BME280;1350;42.134;24.708;2023-05-25T04:14:31;99303.03;;;17.83;100.00
2681;BME280;1350;42.134;24.708;2023-05-25T04:16:58;99305.13;;;17.59;100.00
2681;BME280;1350;42.134;24.708;2023-05-25T04:19:25;99305.06;;;17.49;100.00
2681;BME280;1350;42.134;24.708;2023-05-25T04:21:51;99312.97;;;17.51;100.00
2681;BME280;1350;42.134;24.708;2023-05-25T04:24:20;99309.63;;;17.79;100.00
2681;BME280;1350;42.134;24.708;2023-05-25T04:26:47;99318.97;;;18.05;100.00
2681;BME280;1350;42.134;24.708;2023-05-25T04:29:14;99318.59;;;17.89;100.00
2681;BME280;1350;42.134;24.708;2023-05-25T04:31:41;99318.03;;;17.95;100.00
2681;BME280;1350;42.134;24.708;2023-05-25T04:34:09;99321.59;;;17.95;100.00
2681;BME280;1350;42.134;24.708;2023-05-25T04:36:38;99331.44;;;18.15;100.00
2681;BME280;1350;42.134;24.708;2023-05-25T04:39:07;99328.13;;;18.63;100.00
2681;BME280;1350;42.134;24.708;2023-05-25T04:41:35;99335.28;;;19.11;100.00
2681;BME280;1350;42.134;24.708;2023-05-25T04:44:03;99332.66;;;19.59;100.00
2681;BME280;1350;42.134;24.708;2023-05-25T04:46:30;99326.25;;;19.79;100.00
2681;BME280;1350;42.134;24.708;2023-05-25T04:49:01;99330.94;;;19.77;100.00
2681;BME280;1350;42.134;24.708;2023-05-25T04:51:28;99334.19;;;19.80;100.00
2681;BME280;1350;42.134;24.708;2023-05-25T04:53:56;99332.91;;;19.94;100.00
2681;BME280;1350;42.134;24.708;2023-05-25T04:56:23;99335.16;;;20.08;100.00
2681;BME280;1350;42.134;24.708;2023-05-25T04:58:52;99333.72;;;20.23;100.00
2681;BME280;1350;42.134;24.708;2023-05-25T05:01:21;99340.25;;;20.57;100.00
2681;BME280;1350;42.134;24.708;2023-05-25T05:03:48;99337.72;;;20.73;100.00
2681;BME280;1350;42.134;24.708;2023-05-25T05:06:15;99335.03;;;21.00;100.00
2681;BME280;1350;42.134;24.708;2023-05-25T05:08:42;99342.56;;;21.41;98.19
2681;BME280;1350;42.134;24.708;2023-05-25T05:11:08;99351.28;;;21.53;95.55
2681;BME280;1350;42.134;24.708;2023-05-25T05:13:35;99348.06;;;21.49;94.82
2681;BME280;1350;42.134;24.708;2023-05-25T05:16:04;99339.19;;;21.39;95.15
2681;BME280;1350;42.134;24.708;2023-05-25T05:18:31;99345.19;;;21.51;94.97
2681;BME280;1350;42.134;24.708;2023-05-25T05:20:57;99341.47;;;21.69;94.11
2681;BME280;1350;42.134;24.708;2023-05-25T05:23:24;99339.84;;;21.94;92.67
2681;BME280;1350;42.134;24.708;2023-05-25T05:25:51;99333.44;;;22.21;91.34
2681;BME280;1350;42.134;24.708;2023-05-25T05:28:17;99338.13;;;22.70;89.16
2681;BME280;1350;42.134;24.708;2023-05-25T05:30:44;99343.81;;;23.00;86.97
2681;BME280;1350;42.134;24.708;2023-05-25T05:33:13;99342.44;;;23.38;83.84
2681;BME280;1350;42.134;24.708;2023-05-25T05:35:39;99344.66;;;23.51;80.58
2681;BME280;1350;42.134;24.708;2023-05-25T05:38:06;99344.50;;;23.84;80.44
2681;BME280;1350;42.134;24.708;2023-05-25T05:40:33;99343.47;;;24.25;79.45
2681;BME280;1350;42.134;24.708;2023-05-25T05:43:00;99348.69;;;24.43;75.95
2681;BME280;1350;42.134;24.708;2023-05-25T05:45:27;99347.81;;;24.50;74.25
2681;BME280;1350;42.134;24.708;2023-05-25T05:47:53;99345.03;;;24.82;73.18
2681;BME280;1350;42.134;24.708;2023-05-25T05:50:22;99347.06;;;24.72;71.58
2681;BME280;1350;42.134;24.708;2023-05-25T05:52:48;99346.84;;;24.90;72.96
2681;BME280;1350;42.134;24.708;2023-05-25T05:55:15;99358.25;;;25.16;72.14
2681;BME280;1350;42.134;24.708;2023-05-25T05:57:42;99346.28;;;25.03;72.05
2681;BME280;1350;42.134;24.708;2023-05-25T06:00:10;99351.41;;;24.89;68.72
2681;BME280;1350;42.134;24.708;2023-05-25T06:02:37;99351.00;;;24.70;69.49
2681;BME280;1350;42.134;24.708;2023-05-25T06:05:04;99351.53;;;24.49;68.68
2681;BME280;1350;42.134;24.708;2023-05-25T06:07:33;99355.22;;;24.64;69.21
2681;BME280;1350;42.134;24.708;2023-05-25T06:09:59;99357.38;;;24.85;69.02
2681;BME280;1350;42.134;24.708;2023-05-25T06:12:26;99352.88;;;24.61;67.54
2681;BME280;1350;42.134;24.708;2023-05-25T06:14:53;99347.63;;;24.52;68.62
2681;BME280;1350;42.134;24.708;2023-05-25T06:17:20;99354.16;;;24.11;68.99
2681;BME280;1350;42.134;24.708;2023-05-25T06:19:48;99357.41;;;24.06;70.34
2681;BME280;1350;42.134;24.708;2023-05-25T06:22:15;99359.22;;;23.90;70.26
2681;BME280;1350;42.134;24.708;2023-05-25T06:24:43;99359.03;;;23.91;72.02
2681;BME280;1350;42.134;24.708;2023-05-25T06:27:10;99355.00;;;23.95;71.89
2681;BME280;1350;42.134;24.708;2023-05-25T06:29:37;99351.81;;;24.08;72.56
2681;BME280;1350;42.134;24.708;2023-05-25T06:32:05;99350.56;;;24.26;72.45
2681;BME280;1350;42.134;24.708;2023-05-25T06:34:31;99359.03;;;24.39;72.38
2681;BME280;1350;42.134;24.708;2023-05-25T06:36:58;99358.09;;;24.71;73.58
2681;BME280;1350;42.134;24.708;2023-05-25T06:39:25;99360.78;;;25.18;71.49
2681;BME280;1350;42.134;24.708;2023-05-25T06:41:53;99365.59;;;25.46;70.18
2681;BME280;1350;42.134;24.708;2023-05-25T06:44:20;99365.09;;;25.43;68.23
2681;BME280;1350;42.134;24.708;2023-05-25T06:46:46;99365.34;;;25.17;68.41
2681;BME280;1350;42.134;24.708;2023-05-25T06:49:13;99363.84;;;24.84;70.88
2681;BME280;1350;42.134;24.708;2023-05-25T06:51:40;99360.47;;;25.13;71.26
2681;BME280;1350;42.134;24.708;2023-05-25T06:54:06;99366.38;;;25.55;69.40
2681;BME280;1350;42.134;24.708;2023-05-25T06:56:33;99360.28;;;25.75;67.14
2681;BME280;1350;42.134;24.708;2023-05-25T06:59:01;99355.97;;;26.03;66.86
2681;BME280;1350;42.134;24.708;2023-05-25T07:01:28;99357.00;;;25.57;66.11
2681;BME280;1350;42.134;24.708;2023-05-25T07:03:55;99354.94;;;25.06;68.21
2681;BME280;1350;42.134;24.708;2023-05-25T07:06:21;99344.88;;;25.45;67.83
2681;BME280;1350;42.134;24.708;2023-05-25T07:08:48;99348.59;;;25.89;65.53
2681;BME280;1350;42.134;24.708;2023-05-25T07:11:15;99343.88;;;26.43;65.03
2681;BME280;1350;42.134;24.708;2023-05-25T07:13:44;99348.69;;;26.85;62.55
2681;BME280;1350;42.134;24.708;2023-05-25T07:16:13;99347.41;;;27.31;60.22
2681;BME280;1350;42.134;24.708;2023-05-25T07:18:40;99348.56;;;27.78;58.24
2681;BME280;1350;42.134;24.708;2023-05-25T07:21:07;99354.81;;;27.93;57.59
2681;BME280;1350;42.134;24.708;2023-05-25T07:23:34;99352.78;;;27.81;56.74
2681;BME280;1350;42.134;24.708;2023-05-25T07:26:01;99353.31;;;28.12;54.63
2681;BME280;1350;42.134;24.708;2023-05-25T07:28:28;99357.06;;;28.60;54.11
2681;BME280;1350;42.134;24.708;2023-05-25T07:30:55;99349.81;;;28.80;52.21
2681;BME280;1350;42.134;24.708;2023-05-25T07:33:23;99356.16;;;29.34;51.59
2681;BME280;1350;42.134;24.708;2023-05-25T07:35:50;99348.50;;;29.64;50.20
2681;BME280;1350;42.134;24.708;2023-05-25T07:38:16;99345.41;;;29.80;49.55
2681;BME280;1350;42.134;24.708;2023-05-25T07:40:43;99343.91;;;29.71;50.45
2681;BME280;1350;42.134;24.708;2023-05-25T07:43:11;99359.38;;;29.44;51.58
2681;BME280;1350;42.134;24.708;2023-05-25T07:45:38;99356.56;;;29.31;51.84
2681;BME280;1350;42.134;24.708;2023-05-25T07:48:05;99352.81;;;29.38;51.08
2681;BME280;1350;42.134;24.708;2023-05-25T07:50:35;99355.75;;;29.37;51.53
2681;BME280;1350;42.134;24.708;2023-05-25T07:53:01;99354.63;;;29.12;52.17
2681;BME280;1350;42.134;24.708;2023-05-25T07:55:28;99347.69;;;29.70;51.88
2681;BME280;1350;42.134;24.708;2023-05-25T07:57:55;99343.31;;;29.95;50.49
2681;BME280;1350;42.134;24.708;2023-05-25T08:00:22;99354.53;;;28.99;51.64
2681;BME280;1350;42.134;24.708;2023-05-25T08:02:49;99352.94;;;29.11;52.10
2681;BME280;1350;42.134;24.708;2023-05-25T08:05:15;99364.19;;;28.95;51.89
2681;BME280;1350;42.134;24.708;2023-05-25T08:07:44;99357.00;;;28.53;52.70
2681;BME280;1350;42.134;24.708;2023-05-25T08:10:10;99353.53;;;28.45;53.53
2681;BME280;1350;42.134;24.708;2023-05-25T08:12:38;99358.97;;;28.66;53.22
2681;BME280;1350;42.134;24.708;2023-05-25T08:15:05;99354.06;;;28.89;53.72
2681;BME280;1350;42.134;24.708;2023-05-25T08:17:32;99356.53;;;28.50;53.82
2681;BME280;1350;42.134;24.708;2023-05-25T08:19:58;99356.34;;;28.51;53.68
2681;BME280;1350;42.134;24.708;2023-05-25T08:22:25;99348.69;;;28.40;54.36
2681;BME280;1350;42.134;24.708;2023-05-25T08:24:53;99350.72;;;28.32;54.65
2681;BME280;1350;42.134;24.708;2023-05-25T08:27:20;99345.31;;;28.11;54.68
2681;BME280;1350;42.134;24.708;2023-05-25T08:29:47;99340.81;;;27.82;54.60
2681;BME280;1350;42.134;24.708;2023-05-25T08:32:13;99344.81;;;28.00;55.60
2681;BME280;1350;42.134;24.708;2023-05-25T08:34:40;99337.88;;;27.98;55.90
2681;BME280;1350;42.134;24.708;2023-05-25T08:37:07;99338.63;;;27.71;56.46
2681;BME280;1350;42.134;24.708;2023-05-25T08:39:34;99340.53;;;27.91;55.17
2681;BME280;1350;42.134;24.708;2023-05-25T08:42:02;99336.34;;;28.44;55.42
2681;BME280;1350;42.134;24.708;2023-05-25T08:44:31;99341.81;;;29.19;53.05
2681;BME280;1350;42.134;24.708;2023-05-25T08:47:04;99330.38;;;29.56;51.95
2681;BME280;1350;42.134;24.708;2023-05-25T08:49:33;99323.50;;;29.67;51.55
2681;BME280;1350;42.134;24.708;2023-05-25T08:52:03;99333.59;;;29.79;52.02
2681;BME280;1350;42.134;24.708;2023-05-25T08:54:34;99325.84;;;30.09;51.07
2681;BME280;1350;42.134;24.708;2023-05-25T08:57:09;99328.38;;;30.10;49.70
2681;BME280;1350;42.134;24.708;2023-05-25T08:59:41;99331.50;;;30.59;49.72
2681;BME280;1350;42.134;24.708;2023-05-25T09:02:20;99332.94;;;30.68;48.63
2681;BME280;1350;42.134;24.708;2023-05-25T09:04:47;99330.25;;;30.49;48.35
2681;BME280;1350;42.134;24.708;2023-05-25T09:07:14;99325.38;;;30.57;48.52
2681;BME280;1350;42.134;24.708;2023-05-25T09:09:41;99325.22;;;29.94;49.65
2681;BME280;1350;42.134;24.708;2023-05-25T09:12:09;99328.34;;;29.84;47.89
2681;BME280;1350;42.134;24.708;2023-05-25T09:14:37;99329.84;;;30.58;47.52
2681;BME280;1350;42.134;24.708;2023-05-25T09:17:10;99318.69;;;31.17;46.62
2681;BME280;1350;42.134;24.708;2023-05-25T09:19:37;99315.94;;;31.61;46.32
2681;BME280;1350;42.134;24.708;2023-05-25T09:22:03;99313.97;;;32.06;45.91
2681;BME280;1350;42.134;24.708;2023-05-25T09:24:30;99315.28;;;31.97;44.68
2681;BME280;1350;42.134;24.708;2023-05-25T09:26:58;99309.59;;;32.23;44.37
2681;BME280;1350;42.134;24.708;2023-05-25T09:29:27;99315.09;;;31.61;44.18
2681;BME280;1350;42.134;24.708;2023-05-25T09:31:55;99304.50;;;31.27;44.92
2681;BME280;1350;42.134;24.708;2023-05-25T09:34:21;99308.19;;;31.52;44.86
2681;BME280;1350;42.134;24.708;2023-05-25T09:36:48;99305.97;;;31.67;44.86
2681;BME280;1350;42.134;24.708;2023-05-25T09:39:15;99312.94;;;32.00;43.87
2681;BME280;1350;42.134;24.708;2023-05-25T09:41:42;99304.09;;;32.23;42.32
2681;BME280;1350;42.134;24.708;2023-05-25T09:44:09;99301.44;;;32.34;42.77
2681;BME280;1350;42.134;24.708;2023-05-25T09:46:37;99295.84;;;32.47;41.35
2681;BME280;1350;42.134;24.708;2023-05-25T09:49:06;99299.03;;;32.87;40.77
2681;BME280;1350;42.134;24.708;2023-05-25T09:51:34;99289.13;;;33.16;40.76
2681;BME280;1350;42.134;24.708;2023-05-25T09:54:01;99286.03;;;32.94;40.43
2681;BME280;1350;42.134;24.708;2023-05-25T09:56:30;99288.75;;;31.60;40.33
2681;BME280;1350;42.134;24.708;2023-05-25T09:58:57;99279.19;;;32.00;40.83
2681;BME280;1350;42.134;24.708;2023-05-25T10:01:24;99284.56;;;32.31;39.14
2681;BME280;1350;42.134;24.708;2023-05-25T10:03:54;99278.84;;;32.75;38.55
2681;BME280;1350;42.134;24.708;2023-05-25T10:06:21;99279.69;;;32.57;37.85
2681;BME280;1350;42.134;24.708;2023-05-25T10:08:48;99263.72;;;33.02;37.94
2681;BME280;1350;42.134;24.708;2023-05-25T10:11:18;99269.72;;;33.11;37.10
2681;BME280;1350;42.134;24.708;2023-05-25T10:13:47;99267.47;;;32.90;38.24
2681;BME280;1350;42.134;24.708;2023-05-25T10:16:16;99256.03;;;32.56;38.89
2681;BME280;1350;42.134;24.708;2023-05-25T10:18:46;99264.31;;;31.52;40.09
2681;BME280;1350;42.134;24.708;2023-05-25T10:21:17;99257.59;;;31.72;39.67
2681;BME280;1350;42.134;24.708;2023-05-25T10:23:47;99259.94;;;31.00;40.13
2681;BME280;1350;42.134;24.708;2023-05-25T10:26:17;99257.22;;;31.44;40.30
2681;BME280;1350;42.134;24.708;2023-05-25T10:28:49;99256.47;;;31.86;39.48
2681;BME280;1350;42.134;24.708;2023-05-25T10:31:17;99263.53;;;31.69;39.51
2681;BME280;1350;42.134;24.708;2023-05-25T10:33:45;99267.59;;;30.91;41.46
2681;BME280;1350;42.134;24.708;2023-05-25T10:36:12;99280.59;;;31.09;41.10
2681;BME280;1350;42.134;24.708;2023-05-25T10:38:40;99277.91;;;30.96;40.74
2681;BME280;1350;42.134;24.708;2023-05-25T10:41:09;99269.41;;;30.47;41.56
2681;BME280;1350;42.134;24.708;2023-05-25T10:43:37;99264.97;;;29.48;42.59
2681;BME280;1350;42.134;24.708;2023-05-25T10:46:05;99255.72;;;29.42;44.02
2681;BME280;1350;42.134;24.708;2023-05-25T10:48:36;99258.69;;;29.47;44.87
2681;BME280;1350;42.134;24.708;2023-05-25T10:51:03;99256.56;;;29.49;43.40
2681;BME280;1350;42.134;24.708;2023-05-25T10:53:31;99254.44;;;29.32;43.07
2681;BME280;1350;42.134;24.708;2023-05-25T10:56:03;99256.91;;;29.14;43.85
2681;BME280;1350;42.134;24.708;2023-05-25T10:58:31;99252.91;;;29.10;43.78
2681;BME280;1350;42.134;24.708;2023-05-25T11:00:59;99254.97;;;29.01;44.70
2681;BME280;1350;42.134;24.708;2023-05-25T11:03:55;99262.53;;;28.52;44.45
2681;BME280;1350;42.134;24.708;2023-05-25T11:09:23;99259.81;;;27.27;49.34
2681;BME280;1350;42.134;24.708;2023-05-25T11:12:06;99263.22;;;27.00;50.20
2681;BME280;1350;42.134;24.708;2023-05-25T11:14:33;99255.69;;;26.81;50.52
2681;BME280;1350;42.134;24.708;2023-05-25T11:17:04;99252.53;;;26.63;52.26
2681;BME280;1350;42.134;24.708;2023-05-25T11:19:38;99256.94;;;26.64;53.24
2681;BME280;1350;42.134;24.708;2023-05-25T11:22:13;99263.97;;;26.44;54.25
2681;BME280;1350;42.134;24.708;2023-05-25T11:24:41;99265.84;;;26.00;55.75
2681;BME280;1350;42.134;24.708;2023-05-25T11:27:10;99267.44;;;25.72;57.58
2681;BME280;1350;42.134;24.708;2023-05-25T11:29:38;99263.66;;;25.73;58.19
2681;BME280;1350;42.134;24.708;2023-05-25T11:32:11;99258.41;;;25.71;57.68
2681;BME280;1350;42.134;24.708;2023-05-25T11:34:38;99257.69;;;25.77;57.93
2681;BME280;1350;42.134;24.708;2023-05-25T11:37:11;99262.56;;;25.82;57.63
2681;BME280;1350;42.134;24.708;2023-05-25T11:39:40;99262.09;;;25.78;57.83
2681;BME280;1350;42.134;24.708;2023-05-25T11:42:09;99269.41;;;25.78;57.71
2681;BME280;1350;42.134;24.708;2023-05-25T11:44:36;99258.47;;;25.63;61.15
2681;BME280;1350;42.134;24.708;2023-05-25T11:47:05;99263.16;;;25.32;69.66
2681;BME280;1350;42.134;24.708;2023-05-25T11:49:37;99268.34;;;25.42;72.79
2681;BME280;1350;42.134;24.708;2023-05-25T11:52:06;99251.94;;;25.58;74.32
2681;BME280;1350;42.134;24.708;2023-05-25T11:54:33;99264.56;;;25.51;72.94
2681;BME280;1350;42.134;24.708;2023-05-25T11:57:01;99258.63;;;25.25;71.88
2681;BME280;1350;42.134;24.708;2023-05-25T11:59:29;99251.53;;;25.16;71.38
2681;BME280;1350;42.134;24.708;2023-05-25T12:01:57;99255.81;;;25.41;72.19
2681;BME280;1350;42.134;24.708;2023-05-25T12:04:24;99256.94;;;25.69;68.49
2681;BME280;1350;42.134;24.708;2023-05-25T12:06:51;99250.94;;;25.73;68.26
2681;BME280;1350;42.134;24.708;2023-05-25T12:09:18;99253.03;;;25.86;66.88
2681;BME280;1350;42.134;24.708;2023-05-25T12:11:46;99247.53;;;25.94;65.44
2681;BME280;1350;42.134;24.708;2023-05-25T12:14:13;99258.91;;;26.12;66.43
2681;BME280;1350;42.134;24.708;2023-05-25T12:16:41;99253.25;;;26.28;67.41
2681;BME280;1350;42.134;24.708;2023-05-25T12:19:08;99251.75;;;26.55;65.77
2681;BME280;1350;42.134;24.708;2023-05-25T12:21:37;99250.34;;;26.73;65.91
2681;BME280;1350;42.134;24.708;2023-05-25T12:24:04;99248.00;;;26.85;64.13
2681;BME280;1350;42.134;24.708;2023-05-25T12:26:31;99254.53;;;26.90;60.98
2681;BME280;1350;42.134;24.708;2023-05-25T12:28:59;99252.13;;;27.16;58.25
2681;BME280;1350;42.134;24.708;2023-05-25T12:31:27;99258.91;;;27.41;57.92
2681;BME280;1350;42.134;24.708;2023-05-25T12:34:08;99252.13;;;27.79;56.79
2681;BME280;1350;42.134;24.708;2023-05-25T12:36:40;99243.84;;;27.94;55.75
2681;BME280;1350;42.134;24.708;2023-05-25T12:39:08;99241.22;;;27.79;56.35
2681;BME280;1350;42.134;24.708;2023-05-25T12:41:43;99240.53;;;27.98;56.42
2681;BME280;1350;42.134;24.708;2023-05-25T12:44:21;99244.59;;;27.81;57.18
2681;BME280;1350;42.134;24.708;2023-05-25T12:46:48;99254.44;;;27.82;56.00
2681;BME280;1350;42.134;24.708;2023-05-25T12:49:27;99252.34;;;28.06;56.35
2681;BME280;1350;42.134;24.708;2023-05-25T12:51:55;99257.34;;;28.02;54.78
2681;BME280;1350;42.134;24.708;2023-05-25T12:54:39;99245.94;;;28.20;54.58
2681;BME280;1350;42.134;24.708;2023-05-25T12:57:09;99236.59;;;28.42;53.59
2681;BME280;1350;42.134;24.708;2023-05-25T12:59:36;99237.44;;;28.76;53.35
2681;BME280;1350;42.134;24.708;2023-05-25T13:02:04;99236.31;;;28.58;53.91
2681;BME280;1350;42.134;24.708;2023-05-25T13:04:34;99238.47;;;28.69;54.44
2681;BME280;1350;42.134;24.708;2023-05-25T13:07:02;99243.84;;;28.56;55.51
2681;BME280;1350;42.134;24.708;2023-05-25T13:09:29;99246.00;;;28.67;55.36
2681;BME280;1350;42.134;24.708;2023-05-25T13:11:57;99246.91;;;28.74;55.77
2681;BME280;1350;42.134;24.708;2023-05-25T13:14:25;99250.84;;;28.31;57.03